Time;durP1;ratioP1;P1;durP2;ratioP2;P2;SDS_P1;SDS_P2;PMS_P1;PMS_P2;Temp;Humidity;BMP_temperature;BMP_pressure;BME280_temperature;BME280_humidity;BME280_pressure;Samples;Min_cycle;Max_cycle;Signal;HPM_P1;HPM_P2
2021/10/12 00:00:36;;;;;;;0.00;0.00;;;10.10;99.90;;;;;;5053031;28;20052;-75
2021/10/12 00:03:02;;;;;;;0.00;0.00;;;10.00;99.90;;;;;;5052863;28;20071;-75
2021/10/12 00:05:27;;;;;;;0.00;0.00;;;10.00;99.90;;;;;;5052975;28;20029;-75
2021/10/12 00:07:53;;;;;;;0.10;0.10;;;10.00;99.90;;;;;;5052904;28;20040;-75
2021/10/12 00:10:19;;;;;;;0.00;0.00;;;10.00;99.90;;;;;;5052737;28;20037;-75
2021/10/12 00:12:45;;;;;;;0.63;0.63;;;9.90;99.90;;;;;;5052487;28;20033;-76
2021/10/12 00:15:11;;;;;;;0.10;0.10;;;9.90;99.90;;;;;;5050426;28;20028;-75
2021/10/12 00:17:38;;;;;;;0.35;0.35;;;9.90;99.90;;;;;;5050789;28;20024;-75
2021/10/12 00:20:05;;;;;;;2.42;0.75;;;9.80;99.90;;;;;;5052737;28;20170;-75
2021/10/12 00:22:34;;;;;;;0.17;0.17;;;9.80;99.90;;;;;;5052455;28;20060;-75
2021/10/12 00:25:00;;;;;;;0.00;0.00;;;9.80;99.90;;;;;;5052594;28;20033;-75
2021/10/12 00:27:26;;;;;;;0.00;0.00;;;9.80;99.90;;;;;;5052241;28;20121;-75
2021/10/12 00:29:51;;;;;;;0.00;0.00;;;9.80;99.90;;;;;;5052552;28;20029;-75
2021/10/12 00:32:17;;;;;;;0.17;0.17;;;9.70;99.90;;;;;;5052467;28;20092;-75
2021/10/12 00:34:43;;;;;;;0.50;0.15;;;9.70;99.90;;;;;;5050464;28;20029;-75
2021/10/12 00:37:09;;;;;;;0.80;0.30;;;9.70;99.90;;;;;;5052504;28;20056;-75
2021/10/12 00:39:35;;;;;;;0.00;0.00;;;9.70;99.90;;;;;;5052501;28;20071;-75
2021/10/12 00:42:01;;;;;;;0.40;0.40;;;9.70;99.90;;;;;;5051013;28;20029;-75
2021/10/12 00:44:26;;;;;;;0.57;0.35;;;9.60;99.90;;;;;;5052693;28;20082;-75
2021/10/12 00:46:53;;;;;;;0.93;0.85;;;9.70;99.90;;;;;;5052606;28;20484;-75
2021/10/12 00:49:19;;;;;;;0.55;0.40;;;9.70;99.90;;;;;;5052487;28;20025;-75
2021/10/12 00:51:45;;;;;;;0.28;0.13;;;9.60;99.90;;;;;;5052227;28;20116;-75
2021/10/12 00:54:11;;;;;;;0.00;0.00;;;9.60;99.90;;;;;;5050926;28;20033;-75
2021/10/12 00:56:37;;;;;;;0.00;0.00;;;9.60;99.90;;;;;;5052169;28;20437;-75
2021/10/12 00:59:04;;;;;;;0.00;0.00;;;9.60;99.90;;;;;;5051005;28;20025;-75
2021/10/12 01:01:30;;;;;;;0.22;0.22;;;9.60;99.90;;;;;;5050948;28;20492;-75
2021/10/12 01:03:56;;;;;;;2.53;0.20;;;9.60;99.90;;;;;;5052389;28;20021;-75
2021/10/12 01:06:23;;;;;;;0.20;0.20;;;9.60;99.90;;;;;;5052022;28;20082;-74
2021/10/12 01:08:49;;;;;;;0.08;0.08;;;9.50;99.90;;;;;;5052163;28;20017;-75
2021/10/12 01:11:15;;;;;;;0.70;0.38;;;9.50;99.90;;;;;;5051015;28;20021;-75
2021/10/12 01:13:41;;;;;;;0.13;0.13;;;9.50;99.90;;;;;;5050932;28;20369;-75
2021/10/12 01:16:07;;;;;;;0.20;0.15;;;9.50;99.90;;;;;;5051812;28;20025;-75
2021/10/12 01:18:33;;;;;;;0.10;0.10;;;9.40;99.90;;;;;;5054190;28;20063;-75
2021/10/12 01:20:59;;;;;;;0.00;0.00;;;9.40;99.90;;;;;;5052447;28;20021;-75
2021/10/12 01:23:25;;;;;;;0.10;0.10;;;9.40;99.90;;;;;;5055534;28;20029;-75
2021/10/12 01:25:51;;;;;;;1.00;0.30;;;9.40;99.90;;;;;;5058954;28;20055;-76
2021/10/12 01:28:17;;;;;;;0.08;0.08;;;9.30;99.90;;;;;;5061501;28;20040;-75
2021/10/12 01:30:43;;;;;;;0.00;0.00;;;9.40;99.90;;;;;;5061083;28;20108;-75
2021/10/12 01:33:09;;;;;;;0.10;0.10;;;9.40;99.90;;;;;;5059462;28;20067;-74
2021/10/12 01:35:36;;;;;;;0.30;0.30;;;9.30;99.90;;;;;;5055281;28;20029;-76
2021/10/12 01:38:02;;;;;;;0.05;0.05;;;9.30;99.90;;;;;;5061377;28;20391;-75
2021/10/12 01:40:28;;;;;;;0.08;0.08;;;9.30;99.90;;;;;;5054210;28;20025;-75
2021/10/12 01:42:57;;;;;;;0.00;0.00;;;9.30;99.90;;;;;;5055723;28;20096;-75
2021/10/12 01:45:24;;;;;;;0.17;0.17;;;9.30;99.90;;;;;;5055457;28;20029;-75
2021/10/12 01:47:51;;;;;;;0.10;0.10;;;9.30;99.90;;;;;;5055376;28;20031;-75
2021/10/12 01:50:16;;;;;;;0.05;0.03;;;9.30;99.90;;;;;;5055365;28;20108;-75
2021/10/12 01:52:42;;;;;;;0.10;0.10;;;9.30;99.90;;;;;;5055332;28;20108;-75
2021/10/12 01:55:08;;;;;;;0.00;0.00;;;9.20;99.90;;;;;;5055322;28;20028;-75
2021/10/12 01:57:34;;;;;;;0.28;0.28;;;9.20;99.90;;;;;;5053936;28;20021;-75
2021/10/12 02:00:00;;;;;;;0.55;0.28;;;9.20;99.90;;;;;;5055110;28;20496;-75
2021/10/12 02:02:25;;;;;;;0.00;0.00;;;9.10;99.90;;;;;;5054877;28;20028;-75
2021/10/12 02:04:51;;;;;;;2.50;0.75;;;9.10;99.90;;;;;;5055170;28;20096;-75
2021/10/12 02:07:17;;;;;;;0.00;0.00;;;9.10;99.90;;;;;;5055088;28;20430;-75
2021/10/12 02:09:42;;;;;;;0.00;0.00;;;9.00;99.90;;;;;;5055107;28;20033;-75
2021/10/12 02:12:08;;;;;;;0.00;0.00;;;9.10;99.90;;;;;;5054930;28;20424;-75
2021/10/12 02:14:34;;;;;;;0.08;0.08;;;9.00;99.90;;;;;;5054874;28;20396;-75
2021/10/12 02:17:00;;;;;;;0.00;0.00;;;9.00;99.90;;;;;;5054290;28;20018;-75
2021/10/12 02:19:25;;;;;;;0.08;0.08;;;9.00;99.90;;;;;;5054849;28;20025;-75
2021/10/12 02:21:51;;;;;;;0.00;0.00;;;9.00;99.90;;;;;;5054583;28;20017;-75
2021/10/12 02:24:17;;;;;;;1.25;0.35;;;9.00;99.90;;;;;;5054485;28;20032;-75
2021/10/12 02:26:43;;;;;;;0.00;0.00;;;9.00;99.90;;;;;;5054525;28;20052;-75
2021/10/12 02:29:10;;;;;;;0.10;0.10;;;8.90;99.90;;;;;;5054359;28;20531;-75
2021/10/12 02:31:36;;;;;;;0.00;0.00;;;8.90;99.90;;;;;;5054652;28;20025;-75
2021/10/12 02:34:02;;;;;;;0.00;0.00;;;8.90;99.90;;;;;;5053491;28;20033;-75
2021/10/12 02:36:28;;;;;;;0.70;0.52;;;8.90;99.90;;;;;;5053987;28;20365;-75
2021/10/12 02:38:53;;;;;;;0.63;0.63;;;8.90;99.90;;;;;;5054532;28;20029;-75
2021/10/12 02:41:19;;;;;;;0.30;0.30;;;8.90;99.90;;;;;;5054243;28;20492;-75
2021/10/12 02:43:45;;;;;;;2.17;0.45;;;8.90;99.90;;;;;;5054637;28;20446;-75
2021/10/12 02:46:10;;;;;;;0.05;0.05;;;9.00;99.90;;;;;;5054254;28;20037;-75
2021/10/12 02:48:36;;;;;;;0.00;0.00;;;9.00;99.90;;;;;;5052954;28;20033;-75
2021/10/12 02:51:02;;;;;;;3.95;0.50;;;8.90;99.90;;;;;;5054133;28;20117;-75
2021/10/12 02:53:28;;;;;;;0.00;0.00;;;8.90;99.90;;;;;;5054151;28;20036;-75
2021/10/12 02:55:53;;;;;;;0.10;0.10;;;8.90;99.90;;;;;;5054031;28;20029;-75
2021/10/12 02:58:19;;;;;;;0.82;0.50;;;8.90;99.90;;;;;;5054075;28;20033;-75
2021/10/12 03:00:45;;;;;;;0.00;0.00;;;8.90;99.90;;;;;;5054021;28;20028;-75
2021/10/12 03:03:11;;;;;;;0.00;0.00;;;8.90;99.90;;;;;;5053923;28;20029;-75
2021/10/12 03:05:37;;;;;;;0.00;0.00;;;8.90;99.90;;;;;;5053917;28;20028;-75
2021/10/12 03:08:03;;;;;;;0.10;0.10;;;8.90;99.90;;;;;;5053764;28;20028;-75
2021/10/12 03:10:29;;;;;;;0.00;0.00;;;8.80;99.90;;;;;;5053934;28;20025;-75
2021/10/12 03:12:55;;;;;;;0.00;0.00;;;8.80;99.90;;;;;;5054104;28;20027;-75
2021/10/12 03:15:20;;;;;;;0.10;0.10;;;8.80;99.90;;;;;;5053478;28;20059;-75
2021/10/12 03:17:46;;;;;;;0.77;0.40;;;8.80;99.90;;;;;;5053130;28;20033;-75
2021/10/12 03:20:12;;;;;;;0.22;0.22;;;8.70;99.90;;;;;;5053646;28;20031;-75
2021/10/12 03:22:39;;;;;;;0.00;0.00;;;8.70;99.90;;;;;;5053861;28;20068;-75
2021/10/12 03:25:05;;;;;;;0.00;0.00;;;8.70;99.90;;;;;;5053481;28;20060;-75
2021/10/12 03:27:31;;;;;;;0.10;0.10;;;8.60;99.90;;;;;;5053682;28;20044;-75
2021/10/12 03:29:56;;;;;;;0.00;0.00;;;8.60;99.90;;;;;;5053634;28;20078;-75
2021/10/12 03:32:22;;;;;;;2.50;0.52;;;8.50;99.90;;;;;;5053215;28;20039;-75
2021/10/12 03:34:48;;;;;;;0.05;0.05;;;8.50;99.90;;;;;;5051893;28;20449;-75
2021/10/12 03:37:13;;;;;;;0.38;0.10;;;8.50;99.90;;;;;;5053324;28;20035;-75
2021/10/12 03:39:39;;;;;;;0.13;0.13;;;8.50;99.90;;;;;;5052116;28;20111;-75
2021/10/12 03:42:05;;;;;;;0.00;0.00;;;8.50;99.90;;;;;;5053157;28;20028;-75
2021/10/12 03:44:31;;;;;;;0.70;0.45;;;8.50;99.90;;;;;;5051984;28;20067;-75
2021/10/12 03:46:57;;;;;;;0.35;0.35;;;8.40;99.90;;;;;;5053210;28;20082;-75
2021/10/12 03:49:22;;;;;;;0.35;0.35;;;8.40;99.90;;;;;;5052325;28;20434;-75
2021/10/12 03:51:48;;;;;;;0.32;0.32;;;8.40;99.90;;;;;;5053245;28;20059;-75
2021/10/12 03:54:14;;;;;;;0.28;0.17;;;8.40;99.90;;;;;;5053191;28;20483;-75
2021/10/12 03:56:41;;;;;;;0.13;0.13;;;8.40;99.90;;;;;;5052784;28;20029;-75
2021/10/12 03:59:07;;;;;;;1.45;0.65;;;8.40;99.90;;;;;;5053206;28;20415;-75
2021/10/12 04:01:33;;;;;;;0.00;0.00;;;8.30;99.90;;;;;;5053027;28;20024;-75
2021/10/12 04:04:02;;;;;;;0.93;0.85;;;8.30;99.90;;;;;;5052959;28;20547;-75
2021/10/12 04:06:28;;;;;;;0.05;0.03;;;8.30;99.90;;;;;;5052445;28;20021;-75
2021/10/12 04:08:54;;;;;;;0.00;0.00;;;8.30;99.90;;;;;;5052246;28;20029;-75
2021/10/12 04:11:20;;;;;;;0.00;0.00;;;8.30;99.90;;;;;;5050226;28;20116;-75
2021/10/12 04:13:46;;;;;;;0.25;0.25;;;8.30;99.90;;;;;;5052350;28;20021;-75
2021/10/12 04:16:12;;;;;;;0.10;0.10;;;8.30;99.90;;;;;;5052193;28;20033;-75
2021/10/12 04:18:37;;;;;;;0.03;0.03;;;8.30;99.90;;;;;;5052252;28;20074;-75
2021/10/12 04:21:03;;;;;;;0.20;0.20;;;8.30;99.90;;;;;;5052701;28;20059;-75
2021/10/12 04:23:29;;;;;;;0.63;0.43;;;8.30;99.90;;;;;;5052977;28;20033;-75
2021/10/12 04:25:55;;;;;;;0.05;0.05;;;8.30;99.90;;;;;;5052579;28;20045;-75
2021/10/12 04:28:20;;;;;;;0.10;0.10;;;8.30;99.90;;;;;;5052474;28;20036;-75
2021/10/12 04:30:46;;;;;;;0.00;0.00;;;8.30;99.90;;;;;;5052563;28;20025;-75
2021/10/12 04:33:14;;;;;;;0.52;0.47;;;8.30;99.90;;;;;;5052408;28;20488;-75
2021/10/12 04:35:40;;;;;;;0.00;0.00;;;8.40;99.90;;;;;;5051058;28;20103;-75
2021/10/12 04:38:06;;;;;;;0.00;0.00;;;8.40;99.90;;;;;;5052525;28;20029;-75
2021/10/12 04:40:32;;;;;;;0.85;0.43;;;8.40;99.90;;;;;;5052443;28;20028;-75
2021/10/12 04:42:59;;;;;;;0.32;0.25;;;8.40;99.90;;;;;;5052418;28;20031;-75
2021/10/12 04:45:25;;;;;;;0.30;0.28;;;8.30;99.90;;;;;;5052599;28;20079;-75
2021/10/12 04:47:52;;;;;;;0.17;0.17;;;8.30;99.90;;;;;;5052201;28;20029;-74
2021/10/12 04:50:18;;;;;;;0.17;0.17;;;8.30;99.90;;;;;;5050905;28;20028;-74
2021/10/12 04:52:45;;;;;;;0.00;0.00;;;8.30;99.90;;;;;;5052316;28;20037;-74
2021/10/12 04:55:11;;;;;;;0.20;0.20;;;8.40;99.90;;;;;;5052209;28;20112;-74
2021/10/12 04:57:36;;;;;;;1.02;0.17;;;8.30;99.90;;;;;;5052265;28;20053;-74
2021/10/12 05:00:04;;;;;;;2.85;1.90;;;8.30;99.90;;;;;;5053565;28;20017;-74
2021/10/12 05:02:30;;;;;;;0.73;0.35;;;8.30;99.90;;;;;;5054460;28;20029;-74
2021/10/12 05:04:56;;;;;;;6.03;0.70;;;8.30;99.90;;;;;;5056190;28;20090;-77
2021/10/12 05:07:21;;;;;;;0.47;0.47;;;8.20;99.90;;;;;;5056081;28;20041;-75
2021/10/12 05:09:47;;;;;;;0.13;0.13;;;8.30;99.90;;;;;;5054999;28;20025;-75
2021/10/12 05:12:13;;;;;;;0.20;0.17;;;8.20;99.90;;;;;;5054571;28;20119;-75
2021/10/12 05:14:38;;;;;;;0.43;0.10;;;8.20;99.90;;;;;;5055901;28;20028;-76
2021/10/12 05:17:12;;;;;;;0.75;0.47;;;8.20;99.90;;;;;;5055412;28;20135;-76
2021/10/12 05:19:38;;;;;;;0.90;0.38;;;8.10;99.90;;;;;;5056237;28;20036;-75
2021/10/12 05:22:04;;;;;;;0.00;0.00;;;8.10;99.90;;;;;;5054783;28;20029;-76
2021/10/12 05:24:29;;;;;;;0.00;0.00;;;8.10;99.90;;;;;;5055480;28;20462;-75
2021/10/12 05:26:55;;;;;;;0.45;0.45;;;8.00;99.90;;;;;;5055839;28;20032;-76
2021/10/12 05:29:21;;;;;;;0.00;0.00;;;8.10;99.90;;;;;;5055721;28;20036;-76
2021/10/12 05:31:47;;;;;;;1.98;0.85;;;8.00;99.90;;;;;;5055534;28;20460;-76
2021/10/12 05:34:12;;;;;;;0.75;0.43;;;8.00;99.90;;;;;;5053564;28;20017;-76
2021/10/12 05:36:38;;;;;;;0.00;0.00;;;8.00;99.90;;;;;;5054082;28;20498;-76
2021/10/12 05:39:03;;;;;;;1.23;1.13;;;8.00;99.90;;;;;;5055201;28;20031;-75
2021/10/12 05:41:29;;;;;;;0.10;0.10;;;8.00;99.90;;;;;;5054557;28;20517;-76
2021/10/12 05:43:55;;;;;;;1.80;0.25;;;8.00;99.90;;;;;;5054723;28;20021;-75
2021/10/12 05:46:21;;;;;;;0.08;0.05;;;8.00;99.90;;;;;;5054839;28;20102;-76
2021/10/12 05:48:47;;;;;;;0.20;0.20;;;8.00;99.90;;;;;;5054957;28;20033;-76
2021/10/12 05:51:17;;;;;;;0.00;0.00;;;7.90;99.90;;;;;;5050379;28;20037;-76
2021/10/12 05:53:48;;;;;;;0.10;0.10;;;7.90;99.90;;;;;;5061648;28;20094;-75
2021/10/12 05:58:48;;;;;;;0.10;0.10;;;7.90;99.90;;;;;;5054535;28;20024;-76
2021/10/12 06:01:15;;;;;;;0.00;0.00;;;7.80;99.90;;;;;;5067330;28;20035;-75
2021/10/12 06:03:42;;;;;;;0.10;0.10;;;7.80;99.90;;;;;;5067364;28;20037;-75
2021/10/12 06:06:08;;;;;;;0.20;0.20;;;7.80;99.90;;;;;;5053743;28;20084;-75
2021/10/12 06:08:34;;;;;;;5.25;2.50;;;7.80;99.90;;;;;;5051457;28;20032;-75
2021/10/12 06:11:01;;;;;;;0.08;0.05;;;7.80;99.90;;;;;;5066412;28;20032;-75
2021/10/12 06:13:28;;;;;;;0.75;0.20;;;7.90;99.90;;;;;;5048541;28;20033;-75
2021/10/12 06:15:53;;;;;;;0.10;0.10;;;7.90;99.90;;;;;;5049916;28;20040;-75
2021/10/12 06:18:20;;;;;;;0.20;0.17;;;7.80;99.90;;;;;;5051868;28;20037;-75
2021/10/12 06:20:47;;;;;;;0.20;0.20;;;7.80;99.90;;;;;;5052795;28;20028;-76
2021/10/12 06:23:13;;;;;;;0.20;0.20;;;7.80;99.90;;;;;;5052107;28;20539;-75
2021/10/12 06:25:39;;;;;;;4.10;2.08;;;7.80;99.90;;;;;;5051776;28;20057;-75
2021/10/12 06:28:05;;;;;;;0.32;0.10;;;7.80;99.90;;;;;;5058791;28;20462;-75
2021/10/12 06:30:31;;;;;;;4.68;1.65;;;7.80;99.90;;;;;;5052077;28;20025;-75
2021/10/12 06:32:57;;;;;;;0.00;0.00;;;7.80;99.90;;;;;;5052339;28;20029;-75
2021/10/12 06:35:23;;;;;;;0.22;0.22;;;7.80;99.90;;;;;;5051414;28;20036;-75
2021/10/12 06:37:49;;;;;;;0.80;0.25;;;7.80;99.90;;;;;;5057315;28;20050;-75
2021/10/12 06:40:15;;;;;;;0.05;0.05;;;7.80;99.90;;;;;;5050180;28;20021;-75
2021/10/12 06:42:41;;;;;;;0.00;0.00;;;7.80;99.90;;;;;;5058350;28;20029;-75
2021/10/12 06:45:07;;;;;;;0.00;0.00;;;7.80;99.90;;;;;;5051289;28;20442;-76
2021/10/12 06:47:32;;;;;;;0.38;0.38;;;7.90;99.90;;;;;;5050527;28;20082;-75
2021/10/12 06:49:58;;;;;;;0.40;0.40;;;8.00;99.90;;;;;;5047405;28;20033;-75
2021/10/12 06:52:24;;;;;;;0.08;0.08;;;8.00;99.90;;;;;;5056197;28;20067;-76
2021/10/12 06:54:50;;;;;;;1.63;0.47;;;8.00;99.90;;;;;;5051336;28;20056;-77
2021/10/12 06:57:16;;;;;;;0.55;0.35;;;8.10;99.90;;;;;;5063212;28;20438;-77
2021/10/12 06:59:42;;;;;;;0.60;0.28;;;8.10;99.90;;;;;;5062988;28;20032;-76
2021/10/12 07:02:08;;;;;;;0.73;0.73;;;8.20;99.90;;;;;;5050794;28;20025;-76
2021/10/12 07:04:33;;;;;;;0.00;0.00;;;8.20;99.90;;;;;;5050556;28;20400;-76
2021/10/12 07:07:00;;;;;;;0.00;0.00;;;8.30;99.90;;;;;;5050689;28;20090;-76
2021/10/12 07:09:26;;;;;;;0.47;0.43;;;8.30;99.90;;;;;;5048900;28;20086;-77
2021/10/12 07:11:52;;;;;;;0.57;0.57;;;8.40;99.90;;;;;;5042113;28;20214;-77
2021/10/12 07:14:17;;;;;;;0.70;0.70;;;8.40;99.90;;;;;;5046834;28;20092;-77
2021/10/12 07:16:43;;;;;;;0.00;0.00;;;8.50;99.90;;;;;;5050193;28;20108;-77
2021/10/12 07:19:09;;;;;;;0.00;0.00;;;8.60;99.90;;;;;;5055453;28;20100;-76
2021/10/12 07:21:35;;;;;;;0.08;0.08;;;8.70;99.90;;;;;;5050676;28;20025;-76
2021/10/12 07:24:01;;;;;;;0.00;0.00;;;8.80;99.90;;;;;;5049917;28;20446;-76
2021/10/12 07:26:27;;;;;;;0.10;0.10;;;9.00;99.90;;;;;;5050812;28;20076;-76
2021/10/12 07:28:55;;;;;;;0.32;0.32;;;9.10;99.90;;;;;;5050791;28;20908;-76
2021/10/12 07:31:21;;;;;;;1.23;0.80;;;9.30;99.90;;;;;;5045757;28;20037;-76
2021/10/12 07:33:47;;;;;;;1.20;0.82;;;9.90;99.90;;;;;;5052301;28;20399;-77
2021/10/12 07:36:13;;;;;;;0.70;0.32;;;11.60;99.90;;;;;;5053022;28;20033;-77
2021/10/12 07:38:39;;;;;;;0.28;0.28;;;12.90;99.90;;;;;;5050208;28;20104;-77
2021/10/12 07:41:04;;;;;;;0.00;0.00;;;12.90;99.90;;;;;;5050995;28;20144;-77
2021/10/12 07:43:30;;;;;;;0.00;0.00;;;12.50;99.90;;;;;;5056080;28;20098;-76
2021/10/12 07:45:56;;;;;;;0.03;0.00;;;11.90;99.90;;;;;;5056776;28;20043;-76
2021/10/12 07:48:23;;;;;;;0.22;0.22;;;11.40;99.90;;;;;;5056791;28;20037;-77
2021/10/12 07:50:49;;;;;;;0.00;0.00;;;11.20;99.90;;;;;;5050380;28;20086;-76
2021/10/12 07:53:15;;;;;;;0.08;0.08;;;10.90;99.90;;;;;;5043486;28;20035;-76
2021/10/12 07:55:50;;;;;;;2.30;0.63;;;10.60;99.90;;;;;;5049974;28;20041;-76
2021/10/12 07:58:16;;;;;;;0.03;0.03;;;10.50;99.90;;;;;;5046957;28;20063;-76
2021/10/12 08:00:43;;;;;;;0.68;0.40;;;10.50;99.90;;;;;;5045836;28;20048;-76
2021/10/12 08:03:10;;;;;;;0.73;0.57;;;10.60;99.90;;;;;;5046332;28;20017;-76
2021/10/12 08:05:37;;;;;;;0.00;0.00;;;10.70;99.90;;;;;;5047867;28;20116;-76
2021/10/12 08:08:04;;;;;;;0.55;0.55;;;10.80;99.90;;;;;;5046441;28;20024;-76
2021/10/12 08:10:30;;;;;;;0.25;0.25;;;11.00;99.90;;;;;;5045185;28;20040;-76
2021/10/12 08:12:59;;;;;;;0.10;0.10;;;11.20;99.90;;;;;;5043025;28;20082;-76
2021/10/12 08:15:25;;;;;;;0.10;0.10;;;11.30;99.90;;;;;;5048064;28;20083;-76
2021/10/12 08:17:50;;;;;;;0.30;0.30;;;11.70;99.90;;;;;;5044880;28;20076;-76
2021/10/12 08:20:16;;;;;;;0.25;0.15;;;12.10;99.90;;;;;;5049765;28;20461;-76
2021/10/12 08:22:42;;;;;;;4.60;1.55;;;12.70;99.90;;;;;;5047890;28;20048;-76
2021/10/12 08:25:08;;;;;;;1.73;0.43;;;13.20;99.90;;;;;;5048416;28;20072;-76
2021/10/12 08:27:38;;;;;;;0.10;0.10;;;13.30;99.90;;;;;;5046692;28;20064;-77
2021/10/12 08:30:06;;;;;;;0.13;0.10;;;13.30;99.90;;;;;;5048837;28;20063;-77
2021/10/12 08:32:32;;;;;;;0.98;0.40;;;13.40;99.90;;;;;;5045407;28;20056;-77
2021/10/12 08:34:57;;;;;;;0.45;0.30;;;13.20;99.90;;;;;;5047924;28;20075;-77
2021/10/12 08:37:23;;;;;;;0.77;0.50;;;13.60;99.90;;;;;;5047232;28;20055;-77
2021/10/12 08:39:49;;;;;;;1.38;0.93;;;13.70;99.90;;;;;;5047495;28;20025;-77
2021/10/12 08:42:34;;;;;;;2.90;0.57;;;13.70;99.90;;;;;;5045330;28;20083;-76
2021/10/12 08:45:06;;;;;;;0.68;0.52;;;13.80;99.90;;;;;;5048700;28;20029;-76
2021/10/12 08:47:34;;;;;;;0.30;0.10;;;13.90;99.90;;;;;;5039676;28;20033;-77
2021/10/12 08:50:01;;;;;;;0.43;0.25;;;14.10;99.90;;;;;;5048789;28;20427;-78
2021/10/12 08:52:27;;;;;;;0.28;0.28;;;14.30;99.90;;;;;;5044976;28;20118;-78
2021/10/12 08:54:54;;;;;;;1.27;0.10;;;14.70;99.90;;;;;;5052097;28;20079;-77
2021/10/12 08:57:29;;;;;;;0.10;0.10;;;15.00;99.90;;;;;;5042379;28;20104;-77
2021/10/12 08:59:57;;;;;;;0.63;0.55;;;15.40;99.90;;;;;;5044538;28;20074;-77
2021/10/12 09:02:25;;;;;;;1.85;0.57;;;15.90;99.90;;;;;;5046404;28;20465;-79
2021/10/12 09:04:51;;;;;;;6.85;1.50;;;17.10;99.90;;;;;;5049999;28;20044;-79
2021/10/12 09:07:23;;;;;;;3.22;0.40;;;17.80;99.90;;;;;;5049516;28;20029;-78
2021/10/12 09:09:50;;;;;;;1.17;0.40;;;17.50;99.90;;;;;;5048651;28;20024;-78
2021/10/12 09:12:16;;;;;;;0.10;0.10;;;17.90;99.90;;;;;;5045145;28;20072;-78
2021/10/12 09:14:55;;;;;;;3.05;0.57;;;18.00;99.90;;;;;;5049001;28;20036;-78
2021/10/12 09:17:36;;;;;;;7.57;0.73;;;18.10;99.90;;;;;;5045841;28;20115;-79
2021/10/12 09:20:22;;;;;;;3.20;0.50;;;18.90;99.80;;;;;;5039522;28;20519;-79
2021/10/12 09:23:06;;;;;;;0.63;0.63;;;19.70;97.50;;;;;;5049541;28;20104;-78
2021/10/12 09:25:37;;;;;;;0.47;0.30;;;20.80;96.50;;;;;;5049166;28;20056;-78
2021/10/12 09:28:03;;;;;;;1.15;1.15;;;21.20;95.20;;;;;;5049916;28;20111;-78
2021/10/12 09:30:31;;;;;;;0.88;0.57;;;20.80;95.00;;;;;;5049303;28;20108;-78
2021/10/12 09:33:05;;;;;;;0.47;0.45;;;19.70;96.40;;;;;;5046965;28;20043;-77
2021/10/12 09:35:32;;;;;;;2.42;0.43;;;18.50;98.40;;;;;;5041530;28;20143;-77
2021/10/12 09:38:19;;;;;;;1.17;0.75;;;17.40;99.80;;;;;;5049722;28;20087;-78
2021/10/12 09:40:46;;;;;;;46.13;2.20;;;16.70;99.90;;;;;;5047745;28;20032;-75
2021/10/12 09:43:17;;;;;;;1.25;0.98;;;16.30;99.90;;;;;;5047550;28;20025;-77
2021/10/12 09:45:44;;;;;;;0.28;0.28;;;16.10;99.90;;;;;;5046012;28;20124;-78
2021/10/12 09:48:45;;;;;;;0.20;0.15;;;16.20;99.90;;;;;;5051420;28;20103;-78
2021/10/12 09:51:12;;;;;;;0.28;0.25;;;15.90;99.90;;;;;;5009735;28;20070;-77
2021/10/12 09:53:39;;;;;;;2.92;0.43;;;15.80;99.90;;;;;;5009698;28;20113;-78
2021/10/12 09:56:06;;;;;;;2.47;0.63;;;15.80;99.90;;;;;;5008799;28;20519;-77
2021/10/12 09:58:33;;;;;;;3.92;1.17;;;15.80;99.90;;;;;;5009870;28;20041;-77
2021/10/12 10:01:05;;;;;;;0.00;0.00;;;15.70;99.90;;;;;;4992985;28;20172;-76
2021/10/12 10:03:32;;;;;;;3.42;1.98;;;15.70;99.90;;;;;;5009732;28;20501;-76
2021/10/12 10:06:03;;;;;;;0.35;0.35;;;15.80;99.90;;;;;;5007949;28;20041;-77
2021/10/12 10:08:30;;;;;;;0.15;0.15;;;15.80;99.90;;;;;;5009046;28;20552;-76
2021/10/12 10:10:57;;;;;;;1.48;1.20;;;15.80;99.90;;;;;;5002962;28;20034;-76
2021/10/12 10:13:28;;;;;;;1.13;0.43;;;15.90;99.90;;;;;;5009113;28;20084;-76
2021/10/12 10:15:54;;;;;;;0.00;0.00;;;15.80;99.90;;;;;;5003078;28;20069;-76
2021/10/12 10:18:22;;;;;;;0.28;0.22;;;15.80;99.90;;;;;;5002785;28;20124;-77
2021/10/12 10:20:53;;;;;;;0.35;0.35;;;15.90;99.90;;;;;;5008091;28;20113;-77
2021/10/12 10:23:49;;;;;;;0.47;0.15;;;16.00;99.90;;;;;;5008154;28;20033;-77
2021/10/12 10:26:28;;;;;;;10.95;2.75;;;16.10;99.90;;;;;;5037549;28;20048;-76
2021/10/12 10:28:55;;;;;;;2.65;0.40;;;16.40;99.90;;;;;;5046677;28;20029;-77
2021/10/12 10:31:39;;;;;;;0.30;0.30;;;16.30;99.90;;;;;;5049326;28;20117;-78
2021/10/12 10:34:24;;;;;;;;;;;16.40;99.90;;;;;;5047063;28;20036;-76
2021/10/12 10:37:16;;;;;;;0.55;0.50;;;16.50;99.90;;;;;;5041261;28;19996;-78
2021/10/12 10:40:04;;;;;;;0.70;0.70;;;16.60;99.90;;;;;;5046726;28;20111;-76
2021/10/12 10:42:41;;;;;;;1.85;1.40;;;16.60;99.90;;;;;;5039410;28;20045;-77
2021/10/12 10:45:08;;;;;;;1.55;0.80;;;16.70;99.90;;;;;;5046291;28;20036;-77
2021/10/12 10:47:52;;;;;;;0.20;0.20;;;16.50;99.90;;;;;;5047201;28;20024;-77
2021/10/12 10:50:30;;;;;;;0.10;0.10;;;16.60;99.90;;;;;;5048891;28;20060;-77
2021/10/12 10:52:58;;;;;;;9.35;0.93;;;16.60;99.90;;;;;;5049446;28;20021;-78
2021/10/12 10:55:34;;;;;;;0.10;0.10;;;16.60;99.90;;;;;;5048955;28;20036;-77
2021/10/12 10:58:12;;;;;;;0.08;0.08;;;16.80;99.90;;;;;;5048495;28;20047;-77
2021/10/12 11:00:38;;;;;;;0.17;0.17;;;16.70;99.90;;;;;;5047402;28;20036;-76
2021/10/12 11:03:05;;;;;;;0.68;0.25;;;16.80;99.90;;;;;;5046937;28;20029;-77
2021/10/12 11:05:34;;;;;;;4.97;1.30;;;16.70;99.90;;;;;;5050202;28;20029;-77
2021/10/12 11:08:14;;;;;;;5.38;1.80;;;16.80;99.90;;;;;;5049418;28;20021;-77
2021/10/12 11:10:41;;;;;;;0.43;0.28;;;16.60;99.90;;;;;;5045680;28;20565;-76
2021/10/12 11:13:06;;;;;;;1.88;0.75;;;16.80;99.90;;;;;;5038170;28;20055;-77
2021/10/12 11:15:32;;;;;;;0.10;0.10;;;16.90;99.90;;;;;;5045593;28;20037;-78
2021/10/12 11:18:10;;;;;;;0.20;0.20;;;17.00;99.90;;;;;;5044554;28;20087;-76
2021/10/12 11:20:47;;;;;;;0.03;0.03;;;17.10;99.90;;;;;;5049478;28;20029;-77
2021/10/12 11:23:24;;;;;;;7.22;0.38;;;17.40;99.90;;;;;;5046879;28;20380;-77
2021/10/12 11:26:02;;;;;;;0.38;0.38;;;17.40;99.90;;;;;;5044511;28;20095;-77
2021/10/12 11:28:30;;;;;;;9.23;0.73;;;17.30;99.90;;;;;;5048800;28;20035;-76
2021/10/12 11:31:04;;;;;;;2.92;0.73;;;17.50;99.90;;;;;;5049934;28;20092;-76
2021/10/12 11:33:33;;;;;;;0.17;0.17;;;17.60;99.90;;;;;;5048882;28;20028;-77
2021/10/12 11:36:00;;;;;;;0.13;0.10;;;17.90;99.90;;;;;;5051132;28;20037;-77
2021/10/12 11:38:31;;;;;;;0.20;0.20;;;17.80;99.90;;;;;;5049895;28;20048;-78
2021/10/12 11:40:57;;;;;;;0.57;0.57;;;17.80;99.90;;;;;;5046491;28;20027;-77
2021/10/12 11:43:34;;;;;;;0.10;0.00;;;18.00;99.90;;;;;;5051848;28;20021;-77
2021/10/12 11:46:00;;;;;;;0.10;0.10;;;18.10;99.90;;;;;;5047631;28;20434;-77
2021/10/12 11:48:26;;;;;;;0.25;0.25;;;18.10;99.90;;;;;;5044853;28;20523;-78
2021/10/12 11:50:52;;;;;;;0.20;0.20;;;18.10;98.80;;;;;;5049326;28;20078;-79
2021/10/12 11:53:28;;;;;;;0.28;0.22;;;18.00;98.70;;;;;;5049810;28;20119;-78
2021/10/12 11:56:07;;;;;;;0.10;0.10;;;17.80;98.30;;;;;;5050307;28;20032;-78
2021/10/12 11:58:32;;;;;;;0.30;0.30;;;17.80;99.50;;;;;;5045593;28;20035;-77
2021/10/12 12:00:58;;;;;;;0.25;0.20;;;18.00;99.90;;;;;;5041502;28;20029;-76
2021/10/12 12:03:24;;;;;;;0.93;0.73;;;18.10;98.90;;;;;;5048106;28;20468;-76
2021/10/12 12:05:54;;;;;;;0.43;0.43;;;18.10;98.40;;;;;;5050417;28;20083;-77
2021/10/12 12:08:21;;;;;;;0.30;0.15;;;18.10;99.10;;;;;;5048746;28;20036;-77
2021/10/12 12:10:48;;;;;;;0.15;0.15;;;18.10;98.50;;;;;;5042552;28;20032;-77
2021/10/12 12:13:14;;;;;;;0.38;0.38;;;18.20;97.80;;;;;;5046645;28;20037;-77
2021/10/12 12:15:41;;;;;;;0.30;0.30;;;18.40;98.30;;;;;;5048292;28;20029;-77
2021/10/12 12:18:18;;;;;;;0.90;0.32;;;18.60;98.40;;;;;;5047191;28;20037;-77
2021/10/12 12:20:58;;;;;;;0.00;0.00;;;18.60;97.20;;;;;;5049601;28;20365;-77
2021/10/12 12:23:42;;;;;;;0.08;0.08;;;18.60;97.00;;;;;;5046554;28;20037;-77
2021/10/12 12:26:13;;;;;;;2.40;1.23;;;18.70;96.50;;;;;;5045592;28;20041;-77
2021/10/12 12:28:40;;;;;;;0.00;0.00;;;18.90;97.60;;;;;;5049805;28;20527;-77
2021/10/12 12:31:23;;;;;;;0.35;0.35;;;18.80;96.40;;;;;;5047553;28;20044;-77
2021/10/12 12:33:50;;;;;;;0.70;0.52;;;18.80;96.40;;;;;;5048349;28;20037;-78
2021/10/12 12:36:20;;;;;;;1.00;0.45;;;18.70;96.30;;;;;;5047724;28;20049;-77
2021/10/12 12:38:47;;;;;;;0.10;0.10;;;18.70;96.30;;;;;;5049995;28;20021;-77
2021/10/12 12:41:23;;;;;;;0.00;0.00;;;18.80;95.90;;;;;;5046703;28;20020;-77
2021/10/12 12:43:56;;;;;;;0.00;0.00;;;19.10;96.10;;;;;;5047329;28;20888;-77
2021/10/12 12:46:22;;;;;;;0.38;0.25;;;19.60;96.10;;;;;;5048730;28;20041;-78
2021/10/12 12:49:13;;;;;;;0.45;0.20;;;19.90;95.20;;;;;;5048511;28;20452;-77
2021/10/12 12:51:47;;;;;;;0.05;0.05;;;20.10;94.80;;;;;;5047906;28;20050;-80
2021/10/12 12:54:33;;;;;;;0.00;0.00;;;20.00;94.20;;;;;;5046178;28;20028;-77
2021/10/12 12:57:19;;;;;;;1.10;0.90;;;20.10;95.00;;;;;;5049214;28;20025;-77
2021/10/12 13:00:04;;;;;;;0.82;0.28;;;20.10;93.70;;;;;;5049701;28;20036;-75